sensor_id;sensor_type;location;lat;lon;timestamp;P1;durP1;ratioP1;P2;durP2;ratioP2
11935;SDS011;6027;48.576;9.180;2023-12-14T00:00:23;4.07;;;3.43;;
11935;SDS011;6027;48.576;9.180;2023-12-14T00:02:48;2.90;;;2.70;;
11935;SDS011;6027;48.576;9.180;2023-12-14T00:05:14;2.77;;;2.50;;
11935;SDS011;6027;48.576;9.180;2023-12-14T00:07:39;2.60;;;2.40;;
11935;SDS011;6027;48.576;9.180;2023-12-14T00:10:05;3.27;;;3.03;;
11935;SDS011;6027;48.576;9.180;2023-12-14T00:12:31;2.75;;;2.50;;
11935;SDS011;6027;48.576;9.180;2023-12-14T00:14:56;2.70;;;2.50;;
11935;SDS011;6027;48.576;9.180;2023-12-14T00:17:22;3.07;;;2.80;;
11935;SDS011;6027;48.576;9.180;2023-12-14T00:19:47;3.03;;;2.53;;
11935;SDS011;6027;48.576;9.180;2023-12-14T00:22:12;4.30;;;2.78;;
11935;SDS011;6027;48.576;9.180;2023-12-14T00:24:38;1.85;;;1.75;;
11935;SDS011;6027;48.576;9.180;2023-12-14T00:27:03;2.72;;;2.05;;
11935;SDS011;6027;48.576;9.180;2023-12-14T00:29:29;2.17;;;2.00;;
11935;SDS011;6027;48.576;9.180;2023-12-14T00:31:54;2.60;;;2.00;;
11935;SDS011;6027;48.576;9.180;2023-12-14T00:34:20;3.47;;;3.17;;
11935;SDS011;6027;48.576;9.180;2023-12-14T00:36:45;3.93;;;3.20;;
11935;SDS011;6027;48.576;9.180;2023-12-14T00:39:11;3.40;;;3.10;;
11935;SDS011;6027;48.576;9.180;2023-12-14T00:41:36;3.87;;;3.40;;
11935;SDS011;6027;48.576;9.180;2023-12-14T00:44:02;4.00;;;3.60;;
11935;SDS011;6027;48.576;9.180;2023-12-14T00:46:27;3.60;;;3.30;;
11935;SDS011;6027;48.576;9.180;2023-12-14T00:48:52;3.53;;;2.50;;
11935;SDS011;6027;48.576;9.180;2023-12-14T00:51:18;4.07;;;2.70;;
11935;SDS011;6027;48.576;9.180;2023-12-14T00:53:43;3.40;;;3.10;;
11935;SDS011;6027;48.576;9.180;2023-12-14T00:56:09;3.00;;;2.60;;
11935;SDS011;6027;48.576;9.180;2023-12-14T00:58:34;2.50;;;2.30;;
11935;SDS011;6027;48.576;9.180;2023-12-14T01:00:59;2.60;;;2.30;;
11935;SDS011;6027;48.576;9.180;2023-12-14T01:03:25;2.40;;;2.20;;
11935;SDS011;6027;48.576;9.180;2023-12-14T01:05:51;2.73;;;2.53;;
11935;SDS011;6027;48.576;9.180;2023-12-14T01:08:16;2.20;;;2.00;;
11935;SDS011;6027;48.576;9.180;2023-12-14T01:10:42;4.50;;;2.75;;
11935;SDS011;6027;48.576;9.180;2023-12-14T01:13:08;3.47;;;3.03;;
11935;SDS011;6027;48.576;9.180;2023-12-14T01:15:33;3.20;;;2.90;;
11935;SDS011;6027;48.576;9.180;2023-12-14T01:17:59;3.08;;;2.65;;
11935;SDS011;6027;48.576;9.180;2023-12-14T01:20:24;2.95;;;2.63;;
11935;SDS011;6027;48.576;9.180;2023-12-14T01:22:50;3.67;;;2.90;;
11935;SDS011;6027;48.576;9.180;2023-12-14T01:25:15;2.97;;;2.78;;
11935;SDS011;6027;48.576;9.180;2023-12-14T01:27:40;5.05;;;2.85;;
11935;SDS011;6027;48.576;9.180;2023-12-14T01:30:06;3.53;;;3.13;;
11935;SDS011;6027;48.576;9.180;2023-12-14T01:32:32;3.50;;;3.20;;
11935;SDS011;6027;48.576;9.180;2023-12-14T01:34:58;3.10;;;2.83;;
11935;SDS011;6027;48.576;9.180;2023-12-14T01:37:23;3.78;;;2.72;;
11935;SDS011;6027;48.576;9.180;2023-12-14T01:39:49;3.00;;;2.77;;
11935;SDS011;6027;48.576;9.180;2023-12-14T01:42:14;3.40;;;3.10;;
11935;SDS011;6027;48.576;9.180;2023-12-14T01:44:39;3.70;;;3.17;;
11935;SDS011;6027;48.576;9.180;2023-12-14T01:47:05;4.03;;;3.70;;
11935;SDS011;6027;48.576;9.180;2023-12-14T01:49:30;3.97;;;3.60;;
11935;SDS011;6027;48.576;9.180;2023-12-14T01:51:55;4.47;;;3.93;;
11935;SDS011;6027;48.576;9.180;2023-12-14T01:54:21;4.93;;;4.00;;
11935;SDS011;6027;48.576;9.180;2023-12-14T01:56:46;4.25;;;3.85;;
11935;SDS011;6027;48.576;9.180;2023-12-14T01:59:12;3.90;;;3.60;;
11935;SDS011;6027;48.576;9.180;2023-12-14T02:01:40;6.55;;;3.60;;
11935;SDS011;6027;48.576;9.180;2023-12-14T02:04:08;4.57;;;4.18;;
11935;SDS011;6027;48.576;9.180;2023-12-14T02:06:34;4.25;;;3.85;;
11935;SDS011;6027;48.576;9.180;2023-12-14T02:09:00;5.88;;;4.03;;
11935;SDS011;6027;48.576;9.180;2023-12-14T02:11:26;4.20;;;3.90;;
11935;SDS011;6027;48.576;9.180;2023-12-14T02:13:55;4.00;;;3.70;;
11935;SDS011;6027;48.576;9.180;2023-12-14T02:16:20;6.30;;;4.47;;
11935;SDS011;6027;48.576;9.180;2023-12-14T02:18:46;5.15;;;4.00;;
11935;SDS011;6027;48.576;9.180;2023-12-14T02:21:11;4.70;;;4.30;;
11935;SDS011;6027;48.576;9.180;2023-12-14T02:23:43;5.07;;;4.10;;
11935;SDS011;6027;48.576;9.180;2023-12-14T02:26:09;4.70;;;4.30;;
11935;SDS011;6027;48.576;9.180;2023-12-14T02:28:35;5.10;;;4.60;;
11935;SDS011;6027;48.576;9.180;2023-12-14T02:31:00;5.53;;;5.00;;
11935;SDS011;6027;48.576;9.180;2023-12-14T02:33:26;5.72;;;5.15;;
11935;SDS011;6027;48.576;9.180;2023-12-14T02:35:51;5.80;;;5.20;;
11935;SDS011;6027;48.576;9.180;2023-12-14T02:38:17;7.07;;;5.88;;
11935;SDS011;6027;48.576;9.180;2023-12-14T02:40:42;7.13;;;6.43;;
11935;SDS011;6027;48.576;9.180;2023-12-14T02:43:07;7.53;;;6.75;;
11935;SDS011;6027;48.576;9.180;2023-12-14T02:45:33;7.57;;;6.88;;
11935;SDS011;6027;48.576;9.180;2023-12-14T02:47:58;6.82;;;6.22;;
11935;SDS011;6027;48.576;9.180;2023-12-14T02:50:24;7.93;;;7.22;;
11935;SDS011;6027;48.576;9.180;2023-12-14T02:52:49;9.05;;;8.15;;
11935;SDS011;6027;48.576;9.180;2023-12-14T02:55:15;10.20;;;9.20;;
11935;SDS011;6027;48.576;9.180;2023-12-14T02:57:40;11.20;;;10.20;;
11935;SDS011;6027;48.576;9.180;2023-12-14T03:00:10;10.93;;;9.93;;
11935;SDS011;6027;48.576;9.180;2023-12-14T03:02:36;11.43;;;10.43;;
11935;SDS011;6027;48.576;9.180;2023-12-14T03:05:02;10.95;;;9.95;;
11935;SDS011;6027;48.576;9.180;2023-12-14T03:07:27;12.48;;;11.27;;
11935;SDS011;6027;48.576;9.180;2023-12-14T03:09:52;11.25;;;10.25;;
11935;SDS011;6027;48.576;9.180;2023-12-14T03:12:18;12.35;;;10.23;;
11935;SDS011;6027;48.576;9.180;2023-12-14T03:14:43;11.88;;;10.77;;
11935;SDS011;6027;48.576;9.180;2023-12-14T03:17:09;12.38;;;11.15;;
11935;SDS011;6027;48.576;9.180;2023-12-14T03:19:38;11.32;;;10.23;;
11935;SDS011;6027;48.576;9.180;2023-12-14T03:22:06;11.15;;;10.05;;
11935;SDS011;6027;48.576;9.180;2023-12-14T03:24:32;12.38;;;11.18;;
11935;SDS011;6027;48.576;9.180;2023-12-14T03:26:57;13.00;;;11.70;;
11935;SDS011;6027;48.576;9.180;2023-12-14T03:29:23;13.35;;;12.05;;
11935;SDS011;6027;48.576;9.180;2023-12-14T03:31:48;13.70;;;12.40;;
11935;SDS011;6027;48.576;9.180;2023-12-14T03:34:13;12.68;;;11.38;;
11935;SDS011;6027;48.576;9.180;2023-12-14T03:36:39;11.48;;;10.27;;
11935;SDS011;6027;48.576;9.180;2023-12-14T03:39:04;14.27;;;11.13;;
11935;SDS011;6027;48.576;9.180;2023-12-14T03:41:31;9.38;;;8.43;;
11935;SDS011;6027;48.576;9.180;2023-12-14T03:43:56;7.20;;;6.50;;
11935;SDS011;6027;48.576;9.180;2023-12-14T03:46:22;7.55;;;6.85;;
11935;SDS011;6027;48.576;9.180;2023-12-14T03:48:47;7.32;;;6.63;;
11935;SDS011;6027;48.576;9.180;2023-12-14T03:51:13;8.15;;;7.35;;
11935;SDS011;6027;48.576;9.180;2023-12-14T03:53:38;8.00;;;7.20;;
11935;SDS011;6027;48.576;9.180;2023-12-14T03:56:05;8.00;;;7.30;;
11935;SDS011;6027;48.576;9.180;2023-12-14T03:58:30;10.75;;;7.72;;
11935;SDS011;6027;48.576;9.180;2023-12-14T04:00:56;8.33;;;6.17;;
11935;SDS011;6027;48.576;9.180;2023-12-14T04:03:21;6.60;;;5.53;;
11935;SDS011;6027;48.576;9.180;2023-12-14T04:05:47;6.30;;;5.70;;
11935;SDS011;6027;48.576;9.180;2023-12-14T04:08:12;6.30;;;5.70;;
11935;SDS011;6027;48.576;9.180;2023-12-14T04:10:37;7.30;;;5.25;;
11935;SDS011;6027;48.576;9.180;2023-12-14T04:13:03;5.95;;;5.35;;
11935;SDS011;6027;48.576;9.180;2023-12-14T04:15:28;7.00;;;5.80;;
11935;SDS011;6027;48.576;9.180;2023-12-14T04:17:53;6.97;;;5.60;;
11935;SDS011;6027;48.576;9.180;2023-12-14T04:20:19;6.75;;;5.60;;
11935;SDS011;6027;48.576;9.180;2023-12-14T04:22:44;6.10;;;5.22;;
11935;SDS011;6027;48.576;9.180;2023-12-14T04:25:10;6.43;;;5.82;;
11935;SDS011;6027;48.576;9.180;2023-12-14T04:27:36;6.65;;;5.93;;
11935;SDS011;6027;48.576;9.180;2023-12-14T04:30:01;8.65;;;5.93;;
11935;SDS011;6027;48.576;9.180;2023-12-14T04:32:29;7.15;;;6.45;;
11935;SDS011;6027;48.576;9.180;2023-12-14T04:34:55;7.22;;;6.50;;
11935;SDS011;6027;48.576;9.180;2023-12-14T04:37:20;7.82;;;6.70;;
11935;SDS011;6027;48.576;9.180;2023-12-14T04:39:45;8.07;;;7.28;;
11935;SDS011;6027;48.576;9.180;2023-12-14T04:42:11;8.30;;;7.60;;
11935;SDS011;6027;48.576;9.180;2023-12-14T04:44:36;7.78;;;6.97;;
11935;SDS011;6027;48.576;9.180;2023-12-14T04:47:02;9.73;;;7.50;;
11935;SDS011;6027;48.576;9.180;2023-12-14T04:49:27;8.35;;;7.32;;
11935;SDS011;6027;48.576;9.180;2023-12-14T04:51:53;7.55;;;6.85;;
11935;SDS011;6027;48.576;9.180;2023-12-14T04:54:18;9.05;;;6.97;;
11935;SDS011;6027;48.576;9.180;2023-12-14T04:56:46;7.43;;;6.68;;
11935;SDS011;6027;48.576;9.180;2023-12-14T04:59:12;8.43;;;6.60;;
11935;SDS011;6027;48.576;9.180;2023-12-14T05:01:37;10.77;;;8.50;;
11935;SDS011;6027;48.576;9.180;2023-12-14T05:04:03;13.85;;;10.95;;
11935;SDS011;6027;48.576;9.180;2023-12-14T05:06:29;8.90;;;7.72;;
11935;SDS011;6027;48.576;9.180;2023-12-14T05:08:54;7.72;;;7.07;;
11935;SDS011;6027;48.576;9.180;2023-12-14T05:11:20;6.72;;;6.03;;
11935;SDS011;6027;48.576;9.180;2023-12-14T05:13:46;10.98;;;8.40;;
11935;SDS011;6027;48.576;9.180;2023-12-14T05:16:14;15.70;;;10.30;;
11935;SDS011;6027;48.576;9.180;2023-12-14T05:18:40;8.25;;;7.18;;
11935;SDS011;6027;48.576;9.180;2023-12-14T05:21:06;8.25;;;6.70;;
11935;SDS011;6027;48.576;9.180;2023-12-14T05:23:31;8.77;;;7.10;;
11935;SDS011;6027;48.576;9.180;2023-12-14T05:25:56;7.93;;;6.85;;
11935;SDS011;6027;48.576;9.180;2023-12-14T05:28:22;9.35;;;7.30;;
11935;SDS011;6027;48.576;9.180;2023-12-14T05:30:47;10.10;;;7.40;;
11935;SDS011;6027;48.576;9.180;2023-12-14T05:33:13;8.60;;;7.13;;
11935;SDS011;6027;48.576;9.180;2023-12-14T05:35:39;8.80;;;7.70;;
11935;SDS011;6027;48.576;9.180;2023-12-14T05:38:04;9.48;;;7.55;;
11935;SDS011;6027;48.576;9.180;2023-12-14T05:40:29;8.85;;;7.03;;
11935;SDS011;6027;48.576;9.180;2023-12-14T05:42:56;9.50;;;7.28;;
11935;SDS011;6027;48.576;9.180;2023-12-14T05:45:21;8.60;;;7.28;;
11935;SDS011;6027;48.576;9.180;2023-12-14T05:47:47;8.00;;;7.20;;
11935;SDS011;6027;48.576;9.180;2023-12-14T05:50:12;9.27;;;6.97;;
11935;SDS011;6027;48.576;9.180;2023-12-14T05:52:38;9.13;;;7.38;;
11935;SDS011;6027;48.576;9.180;2023-12-14T05:55:04;9.23;;;6.80;;
11935;SDS011;6027;48.576;9.180;2023-12-14T05:57:30;9.07;;;7.10;;
11935;SDS011;6027;48.576;9.180;2023-12-14T05:59:55;8.90;;;7.60;;
11935;SDS011;6027;48.576;9.180;2023-12-14T06:02:22;9.48;;;7.18;;
11935;SDS011;6027;48.576;9.180;2023-12-14T06:04:47;12.32;;;7.90;;
11935;SDS011;6027;48.576;9.180;2023-12-14T06:07:14;11.77;;;8.38;;
11935;SDS011;6027;48.576;9.180;2023-12-14T06:09:40;11.75;;;8.82;;
11935;SDS011;6027;48.576;9.180;2023-12-14T06:12:06;12.27;;;9.98;;
11935;SDS011;6027;48.576;9.180;2023-12-14T06:14:31;14.25;;;10.90;;
11935;SDS011;6027;48.576;9.180;2023-12-14T06:16:57;16.15;;;10.75;;
11935;SDS011;6027;48.576;9.180;2023-12-14T06:19:23;15.90;;;11.20;;
11935;SDS011;6027;48.576;9.180;2023-12-14T06:21:48;15.80;;;10.52;;
11935;SDS011;6027;48.576;9.180;2023-12-14T06:24:14;16.48;;;10.32;;
11935;SDS011;6027;48.576;9.180;2023-12-14T06:26:43;16.83;;;9.57;;
11935;SDS011;6027;48.576;9.180;2023-12-14T06:29:09;12.30;;;9.80;;
11935;SDS011;6027;48.576;9.180;2023-12-14T06:31:35;12.77;;;10.15;;
11935;SDS011;6027;48.576;9.180;2023-12-14T06:34:01;15.43;;;10.20;;
11935;SDS011;6027;48.576;9.180;2023-12-14T06:36:29;11.05;;;9.95;;
11935;SDS011;6027;48.576;9.180;2023-12-14T06:38:59;12.50;;;10.85;;
11935;SDS011;6027;48.576;9.180;2023-12-14T06:41:26;14.55;;;10.85;;
11935;SDS011;6027;48.576;9.180;2023-12-14T06:43:53;13.52;;;10.20;;
11935;SDS011;6027;48.576;9.180;2023-12-14T06:46:19;14.57;;;11.30;;
11935;SDS011;6027;48.576;9.180;2023-12-14T06:48:45;15.30;;;13.33;;
11935;SDS011;6027;48.576;9.180;2023-12-14T06:51:11;17.00;;;13.25;;
11935;SDS011;6027;48.576;9.180;2023-12-14T06:53:38;15.35;;;12.95;;
11935;SDS011;6027;48.576;9.180;2023-12-14T06:56:05;19.30;;;16.83;;
11935;SDS011;6027;48.576;9.180;2023-12-14T06:58:34;25.63;;;22.52;;
11935;SDS011;6027;48.576;9.180;2023-12-14T07:01:00;24.10;;;16.48;;
11935;SDS011;6027;48.576;9.180;2023-12-14T07:03:25;17.35;;;13.48;;
11935;SDS011;6027;48.576;9.180;2023-12-14T07:05:50;30.45;;;19.40;;
11935;SDS011;6027;48.576;9.180;2023-12-14T07:08:16;35.03;;;18.27;;
11935;SDS011;6027;48.576;9.180;2023-12-14T07:10:41;19.00;;;16.95;;
11935;SDS011;6027;48.576;9.180;2023-12-14T07:13:07;17.98;;;14.82;;
11935;SDS011;6027;48.576;9.180;2023-12-14T07:15:33;21.25;;;14.77;;
11935;SDS011;6027;48.576;9.180;2023-12-14T07:17:59;17.45;;;14.48;;
11935;SDS011;6027;48.576;9.180;2023-12-14T07:20:24;23.48;;;16.58;;
11935;SDS011;6027;48.576;9.180;2023-12-14T07:22:50;22.48;;;15.82;;
11935;SDS011;6027;48.576;9.180;2023-12-14T07:25:15;16.20;;;14.50;;
11935;SDS011;6027;48.576;9.180;2023-12-14T07:27:41;17.58;;;15.50;;
11935;SDS011;6027;48.576;9.180;2023-12-14T07:30:08;18.20;;;16.27;;
11935;SDS011;6027;48.576;9.180;2023-12-14T07:32:34;24.50;;;16.52;;
11935;SDS011;6027;48.576;9.180;2023-12-14T07:35:00;18.02;;;16.10;;
11935;SDS011;6027;48.576;9.180;2023-12-14T07:37:25;16.85;;;15.15;;
11935;SDS011;6027;48.576;9.180;2023-12-14T07:39:50;18.27;;;15.35;;
11935;SDS011;6027;48.576;9.180;2023-12-14T07:42:16;16.08;;;14.38;;
11935;SDS011;6027;48.576;9.180;2023-12-14T07:44:44;15.63;;;13.50;;
11935;SDS011;6027;48.576;9.180;2023-12-14T07:47:10;20.15;;;15.00;;
11935;SDS011;6027;48.576;9.180;2023-12-14T07:49:37;15.32;;;13.70;;
11935;SDS011;6027;48.576;9.180;2023-12-14T07:52:03;27.70;;;16.10;;
11935;SDS011;6027;48.576;9.180;2023-12-14T07:54:29;24.10;;;14.55;;
11935;SDS011;6027;48.576;9.180;2023-12-14T07:56:54;18.95;;;14.20;;
11935;SDS011;6027;48.576;9.180;2023-12-14T07:59:20;20.00;;;14.43;;
11935;SDS011;6027;48.576;9.180;2023-12-14T08:01:47;29.88;;;16.60;;
11935;SDS011;6027;48.576;9.180;2023-12-14T08:04:12;17.70;;;14.48;;
11935;SDS011;6027;48.576;9.180;2023-12-14T08:06:38;21.05;;;15.48;;
11935;SDS011;6027;48.576;9.180;2023-12-14T08:09:04;22.30;;;17.40;;
11935;SDS011;6027;48.576;9.180;2023-12-14T08:11:31;23.48;;;15.85;;
11935;SDS011;6027;48.576;9.180;2023-12-14T08:13:57;19.60;;;16.80;;
11935;SDS011;6027;48.576;9.180;2023-12-14T08:16:22;19.27;;;15.02;;
11935;SDS011;6027;48.576;9.180;2023-12-14T08:18:47;25.83;;;17.17;;
11935;SDS011;6027;48.576;9.180;2023-12-14T08:21:14;18.45;;;15.15;;
11935;SDS011;6027;48.576;9.180;2023-12-14T08:23:39;39.63;;;23.15;;
11935;SDS011;6027;48.576;9.180;2023-12-14T08:26:05;19.35;;;17.33;;
11935;SDS011;6027;48.576;9.180;2023-12-14T08:28:30;22.67;;;18.60;;
11935;SDS011;6027;48.576;9.180;2023-12-14T08:30:56;19.38;;;15.55;;
11935;SDS011;6027;48.576;9.180;2023-12-14T08:33:27;20.42;;;17.33;;
11935;SDS011;6027;48.576;9.180;2023-12-14T08:35:52;19.75;;;17.67;;
11935;SDS011;6027;48.576;9.180;2023-12-14T08:38:17;26.90;;;19.48;;
11935;SDS011;6027;48.576;9.180;2023-12-14T08:40:43;23.30;;;19.05;;
11935;SDS011;6027;48.576;9.180;2023-12-14T08:43:08;20.67;;;18.02;;
11935;SDS011;6027;48.576;9.180;2023-12-14T08:45:33;20.98;;;18.67;;
11935;SDS011;6027;48.576;9.180;2023-12-14T08:47:59;19.35;;;16.98;;
11935;SDS011;6027;48.576;9.180;2023-12-14T08:50:24;21.90;;;18.50;;
11935;SDS011;6027;48.576;9.180;2023-12-14T08:52:51;30.35;;;19.83;;
11935;SDS011;6027;48.576;9.180;2023-12-14T08:55:17;19.30;;;16.27;;
11935;SDS011;6027;48.576;9.180;2023-12-14T08:57:43;19.50;;;17.05;;
11935;SDS011;6027;48.576;9.180;2023-12-14T09:00:08;21.25;;;16.77;;
11935;SDS011;6027;48.576;9.180;2023-12-14T09:02:35;16.88;;;15.07;;
11935;SDS011;6027;48.576;9.180;2023-12-14T09:05:04;17.40;;;15.43;;
11935;SDS011;6027;48.576;9.180;2023-12-14T09:07:31;21.48;;;16.38;;
11935;SDS011;6027;48.576;9.180;2023-12-14T09:09:56;19.33;;;16.45;;
11935;SDS011;6027;48.576;9.180;2023-12-14T09:12:21;18.08;;;16.00;;
11935;SDS011;6027;48.576;9.180;2023-12-14T09:15:10;18.70;;;15.75;;
11935;SDS011;6027;48.576;9.180;2023-12-14T09:17:35;16.33;;;14.82;;
11935;SDS011;6027;48.576;9.180;2023-12-14T09:20:01;18.17;;;15.07;;
11935;SDS011;6027;48.576;9.180;2023-12-14T09:22:30;17.98;;;15.30;;
11935;SDS011;6027;48.576;9.180;2023-12-14T09:24:56;17.98;;;15.73;;
11935;SDS011;6027;48.576;9.180;2023-12-14T09:27:23;18.00;;;16.02;;
11935;SDS011;6027;48.576;9.180;2023-12-14T09:29:48;16.45;;;14.95;;
11935;SDS011;6027;48.576;9.180;2023-12-14T09:32:13;15.85;;;14.35;;
11935;SDS011;6027;48.576;9.180;2023-12-14T09:34:39;15.90;;;14.50;;
11935;SDS011;6027;48.576;9.180;2023-12-14T09:37:04;15.93;;;14.32;;
11935;SDS011;6027;48.576;9.180;2023-12-14T09:39:30;15.45;;;13.55;;
11935;SDS011;6027;48.576;9.180;2023-12-14T09:42:02;15.75;;;13.50;;
11935;SDS011;6027;48.576;9.180;2023-12-14T09:44:29;15.98;;;14.27;;
11935;SDS011;6027;48.576;9.180;2023-12-14T09:46:55;14.88;;;13.40;;
11935;SDS011;6027;48.576;9.180;2023-12-14T09:49:22;14.35;;;12.90;;
11935;SDS011;6027;48.576;9.180;2023-12-14T09:51:49;10.48;;;9.45;;
11935;SDS011;6027;48.576;9.180;2023-12-14T09:54:15;11.40;;;10.27;;
11935;SDS011;6027;48.576;9.180;2023-12-14T09:56:47;8.40;;;7.57;;
11935;SDS011;6027;48.576;9.180;2023-12-14T09:59:13;7.28;;;6.65;;
11935;SDS011;6027;48.576;9.180;2023-12-14T10:01:39;6.93;;;6.22;;
11935;SDS011;6027;48.576;9.180;2023-12-14T10:04:08;7.10;;;6.40;;
11935;SDS011;6027;48.576;9.180;2023-12-14T10:06:35;6.30;;;5.78;;
11935;SDS011;6027;48.576;9.180;2023-12-14T10:09:02;7.50;;;6.68;;
11935;SDS011;6027;48.576;9.180;2023-12-14T10:11:28;8.18;;;6.70;;
11935;SDS011;6027;48.576;9.180;2023-12-14T10:13:53;7.10;;;6.40;;
11935;SDS011;6027;48.576;9.180;2023-12-14T10:16:29;7.70;;;6.85;;
11935;SDS011;6027;48.576;9.180;2023-12-14T10:18:56;7.03;;;6.32;;
11935;SDS011;6027;48.576;9.180;2023-12-14T10:21:26;7.47;;;6.68;;
11935;SDS011;6027;48.576;9.180;2023-12-14T10:23:56;8.27;;;7.47;;
11935;SDS011;6027;48.576;9.180;2023-12-14T10:26:22;7.10;;;5.97;;
11935;SDS011;6027;48.576;9.180;2023-12-14T10:28:50;6.53;;;5.80;;
11935;SDS011;6027;48.576;9.180;2023-12-14T10:31:17;6.18;;;5.60;;
11935;SDS011;6027;48.576;9.180;2023-12-14T10:33:43;7.65;;;6.38;;
11935;SDS011;6027;48.576;9.180;2023-12-14T10:36:09;6.97;;;6.30;;
11935;SDS011;6027;48.576;9.180;2023-12-14T10:38:35;7.30;;;6.22;;
11935;SDS011;6027;48.576;9.180;2023-12-14T10:41:03;7.63;;;6.53;;
11935;SDS011;6027;48.576;9.180;2023-12-14T10:43:30;7.68;;;6.90;;
11935;SDS011;6027;48.576;9.180;2023-12-14T10:45:57;6.40;;;5.82;;
11935;SDS011;6027;48.576;9.180;2023-12-14T10:48:24;5.57;;;5.07;;
11935;SDS011;6027;48.576;9.180;2023-12-14T10:50:51;5.70;;;5.20;;
11935;SDS011;6027;48.576;9.180;2023-12-14T10:53:18;5.82;;;5.20;;
11935;SDS011;6027;48.576;9.180;2023-12-14T10:55:44;6.50;;;5.20;;
11935;SDS011;6027;48.576;9.180;2023-12-14T10:58:10;6.00;;;5.40;;
11935;SDS011;6027;48.576;9.180;2023-12-14T11:00:36;6.13;;;5.53;;
11935;SDS011;6027;48.576;9.180;2023-12-14T11:03:06;4.90;;;4.50;;
11935;SDS011;6027;48.576;9.180;2023-12-14T11:05:34;6.70;;;5.13;;
11935;SDS011;6027;48.576;9.180;2023-12-14T11:13:08;5.07;;;4.60;;
11935;SDS011;6027;48.576;9.180;2023-12-14T11:15:38;7.55;;;6.85;;
11935;SDS011;6027;48.576;9.180;2023-12-14T11:18:22;5.68;;;4.70;;
11935;SDS011;6027;48.576;9.180;2023-12-14T11:20:50;4.70;;;3.90;;
11935;SDS011;6027;48.576;9.180;2023-12-14T11:25:54;4.32;;;3.92;;
11935;SDS011;6027;48.576;9.180;2023-12-14T11:28:22;5.55;;;5.05;;
11935;SDS011;6027;48.576;9.180;2023-12-14T11:30:48;5.65;;;4.60;;
11935;SDS011;6027;48.576;9.180;2023-12-14T11:33:13;6.13;;;4.68;;
11935;SDS011;6027;48.576;9.180;2023-12-14T11:35:40;6.13;;;4.28;;
11935;SDS011;6027;48.576;9.180;2023-12-14T11:38:06;5.10;;;4.60;;
11935;SDS011;6027;48.576;9.180;2023-12-14T11:40:37;4.97;;;4.55;;
11935;SDS011;6027;48.576;9.180;2023-12-14T11:43:05;5.05;;;4.03;;
11935;SDS011;6027;48.576;9.180;2023-12-14T11:45:34;6.80;;;5.40;;
11935;SDS011;6027;48.576;9.180;2023-12-14T11:48:01;6.25;;;5.65;;
11935;SDS011;6027;48.576;9.180;2023-12-14T11:50:40;6.57;;;5.90;;
11935;SDS011;6027;48.576;9.180;2023-12-14T11:53:07;6.70;;;6.10;;
11935;SDS011;6027;48.576;9.180;2023-12-14T11:55:34;5.35;;;4.82;;
11935;SDS011;6027;48.576;9.180;2023-12-14T11:58:00;4.47;;;4.07;;
11935;SDS011;6027;48.576;9.180;2023-12-14T12:00:28;5.70;;;5.20;;
11935;SDS011;6027;48.576;9.180;2023-12-14T12:05:43;5.22;;;4.78;;
11935;SDS011;6027;48.576;9.180;2023-12-14T12:08:11;5.82;;;5.32;;
11935;SDS011;6027;48.576;9.180;2023-12-14T12:10:38;5.90;;;5.18;;
11935;SDS011;6027;48.576;9.180;2023-12-14T12:13:06;6.22;;;5.63;;
11935;SDS011;6027;48.576;9.180;2023-12-14T12:15:33;5.43;;;4.93;;
11935;SDS011;6027;48.576;9.180;2023-12-14T12:18:08;5.07;;;4.57;;
11935;SDS011;6027;48.576;9.180;2023-12-14T12:20:36;6.15;;;4.43;;
11935;SDS011;6027;48.576;9.180;2023-12-14T12:23:02;5.53;;;4.70;;
11935;SDS011;6027;48.576;9.180;2023-12-14T12:25:32;6.80;;;6.20;;
11935;SDS011;6027;48.576;9.180;2023-12-14T12:27:59;7.88;;;5.75;;
11935;SDS011;6027;48.576;9.180;2023-12-14T12:30:26;5.35;;;4.43;;
11935;SDS011;6027;48.576;9.180;2023-12-14T12:32:52;5.53;;;3.97;;
11935;SDS011;6027;48.576;9.180;2023-12-14T12:35:18;3.75;;;3.40;;
11935;SDS011;6027;48.576;9.180;2023-12-14T12:37:44;5.15;;;3.60;;
11935;SDS011;6027;48.576;9.180;2023-12-14T12:40:11;3.92;;;3.50;;
11935;SDS011;6027;48.576;9.180;2023-12-14T12:42:36;3.95;;;3.30;;
11935;SDS011;6027;48.576;9.180;2023-12-14T12:45:02;3.30;;;3.00;;
11935;SDS011;6027;48.576;9.180;2023-12-14T12:47:29;3.97;;;3.30;;
11935;SDS011;6027;48.576;9.180;2023-12-14T12:49:55;4.65;;;3.65;;
11935;SDS011;6027;48.576;9.180;2023-12-14T12:52:20;4.35;;;3.95;;
11935;SDS011;6027;48.576;9.180;2023-12-14T12:54:45;3.85;;;3.55;;
11935;SDS011;6027;48.576;9.180;2023-12-14T12:57:11;4.68;;;3.20;;
11935;SDS011;6027;48.576;9.180;2023-12-14T12:59:36;3.42;;;3.10;;
11935;SDS011;6027;48.576;9.180;2023-12-14T13:02:01;8.10;;;5.93;;
11935;SDS011;6027;48.576;9.180;2023-12-14T13:04:27;3.85;;;3.50;;
11935;SDS011;6027;48.576;9.180;2023-12-14T13:06:55;5.05;;;3.40;;
11935;SDS011;6027;48.576;9.180;2023-12-14T13:09:21;5.07;;;4.53;;
11935;SDS011;6027;48.576;9.180;2023-12-14T13:11:46;5.75;;;4.40;;
11935;SDS011;6027;48.576;9.180;2023-12-14T13:14:12;4.45;;;4.05;;
11935;SDS011;6027;48.576;9.180;2023-12-14T13:16:39;5.32;;;4.25;;
11935;SDS011;6027;48.576;9.180;2023-12-14T13:19:05;5.53;;;4.63;;
11935;SDS011;6027;48.576;9.180;2023-12-14T13:21:32;4.55;;;4.07;;
11935;SDS011;6027;48.576;9.180;2023-12-14T13:23:59;5.13;;;4.30;;
11935;SDS011;6027;48.576;9.180;2023-12-14T13:26:25;5.60;;;5.00;;
11935;SDS011;6027;48.576;9.180;2023-12-14T13:28:51;4.60;;;4.00;;
11935;SDS011;6027;48.576;9.180;2023-12-14T13:31:17;6.63;;;5.25;;
11935;SDS011;6027;48.576;9.180;2023-12-14T13:33:43;4.53;;;3.20;;
11935;SDS011;6027;48.576;9.180;2023-12-14T13:36:08;3.65;;;3.00;;
11935;SDS011;6027;48.576;9.180;2023-12-14T13:38:34;4.97;;;4.30;;
11935;SDS011;6027;48.576;9.180;2023-12-14T13:41:01;5.15;;;3.30;;
11935;SDS011;6027;48.576;9.180;2023-12-14T13:43:28;5.40;;;3.20;;
11935;SDS011;6027;48.576;9.180;2023-12-14T13:45:54;3.88;;;3.58;;
11935;SDS011;6027;48.576;9.180;2023-12-14T13:48:22;3.30;;;3.00;;
11935;SDS011;6027;48.576;9.180;2023-12-14T13:50:51;4.60;;;2.70;;
11935;SDS011;6027;48.576;9.180;2023-12-14T13:53:17;2.80;;;2.55;;
11935;SDS011;6027;48.576;9.180;2023-12-14T13:55:43;10.40;;;9.30;;
11935;SDS011;6027;48.576;9.180;2023-12-14T13:58:08;6.03;;;5.45;;
11935;SDS011;6027;48.576;9.180;2023-12-14T14:00:34;5.07;;;3.85;;
11935;SDS011;6027;48.576;9.180;2023-12-14T14:03:00;3.78;;;3.20;;
11935;SDS011;6027;48.576;9.180;2023-12-14T14:05:25;3.20;;;2.90;;
11935;SDS011;6027;48.576;9.180;2023-12-14T14:07:51;3.88;;;3.55;;
11935;SDS011;6027;48.576;9.180;2023-12-14T14:10:17;17.25;;;13.35;;
11935;SDS011;6027;48.576;9.180;2023-12-14T14:12:43;10.30;;;9.23;;
11935;SDS011;6027;48.576;9.180;2023-12-14T14:15:09;4.80;;;4.13;;
11935;SDS011;6027;48.576;9.180;2023-12-14T14:17:35;3.33;;;2.78;;
11935;SDS011;6027;48.576;9.180;2023-12-14T14:20:00;3.97;;;3.38;;
11935;SDS011;6027;48.576;9.180;2023-12-14T14:22:26;5.15;;;3.50;;
11935;SDS011;6027;48.576;9.180;2023-12-14T14:24:52;5.97;;;3.72;;
11935;SDS011;6027;48.576;9.180;2023-12-14T14:27:17;3.53;;;2.20;;
11935;SDS011;6027;48.576;9.180;2023-12-14T14:29:42;2.13;;;1.95;;
11935;SDS011;6027;48.576;9.180;2023-12-14T14:32:08;2.38;;;2.10;;
11935;SDS011;6027;48.576;9.180;2023-12-14T14:34:33;2.33;;;2.00;;
11935;SDS011;6027;48.576;9.180;2023-12-14T14:37:00;3.00;;;2.30;;
11935;SDS011;6027;48.576;9.180;2023-12-14T14:39:26;2.60;;;2.17;;
11935;SDS011;6027;48.576;9.180;2023-12-14T14:41:51;3.03;;;2.72;;
11935;SDS011;6027;48.576;9.180;2023-12-14T14:44:17;3.65;;;3.08;;
11935;SDS011;6027;48.576;9.180;2023-12-14T14:46:43;2.42;;;2.22;;
11935;SDS011;6027;48.576;9.180;2023-12-14T14:49:08;3.97;;;3.58;;
11935;SDS011;6027;48.576;9.180;2023-12-14T14:51:33;4.05;;;3.42;;
11935;SDS011;6027;48.576;9.180;2023-12-14T14:53:59;4.90;;;3.75;;
11935;SDS011;6027;48.576;9.180;2023-12-14T14:56:24;3.92;;;3.55;;